sensor_id;sensor_type;location;lat;lon;timestamp;P1;durP1;ratioP1;P2;durP2;ratioP2
6721;SDS011;3398;51.292;6.740;2023-05-29T00:00:25;4.45;;;2.45;;
6721;SDS011;3398;51.292;6.740;2023-05-29T00:00:56;4.18;;;2.38;;
6721;SDS011;3398;51.292;6.740;2023-05-29T00:01:24;4.03;;;2.33;;
6721;SDS011;3398;51.292;6.740;2023-05-29T00:01:52;3.90;;;2.20;;
6721;SDS011;3398;51.292;6.740;2023-05-29T00:02:20;4.57;;;2.33;;
6721;SDS011;3398;51.292;6.740;2023-05-29T00:02:49;4.82;;;2.20;;
6721;SDS011;3398;51.292;6.740;2023-05-29T00:03:18;2.28;;;1.98;;
6721;SDS011;3398;51.292;6.740;2023-05-29T00:03:46;4.45;;;2.45;;
6721;SDS011;3398;51.292;6.740;2023-05-29T00:04:15;3.40;;;2.40;;
6721;SDS011;3398;51.292;6.740;2023-05-29T00:04:43;3.20;;;2.22;;
6721;SDS011;3398;51.292;6.740;2023-05-29T00:05:13;3.20;;;2.40;;
6721;SDS011;3398;51.292;6.740;2023-05-29T00:05:41;5.40;;;2.58;;
6721;SDS011;3398;51.292;6.740;2023-05-29T00:06:10;4.35;;;2.30;;
6721;SDS011;3398;51.292;6.740;2023-05-29T00:06:39;3.33;;;2.30;;
6721;SDS011;3398;51.292;6.740;2023-05-29T00:07:08;4.30;;;2.38;;
6721;SDS011;3398;51.292;6.740;2023-05-29T00:07:37;5.88;;;2.45;;
6721;SDS011;3398;51.292;6.740;2023-05-29T00:08:05;4.80;;;2.33;;
6721;SDS011;3398;51.292;6.740;2023-05-29T00:08:33;3.33;;;2.28;;
6721;SDS011;3398;51.292;6.740;2023-05-29T00:09:02;3.17;;;2.20;;
6721;SDS011;3398;51.292;6.740;2023-05-29T00:09:31;4.15;;;2.45;;
6721;SDS011;3398;51.292;6.740;2023-05-29T00:09:59;4.75;;;2.35;;
6721;SDS011;3398;51.292;6.740;2023-05-29T00:10:28;4.45;;;2.42;;
6721;SDS011;3398;51.292;6.740;2023-05-29T00:10:58;3.80;;;2.30;;
6721;SDS011;3398;51.292;6.740;2023-05-29T00:11:26;4.30;;;2.35;;
6721;SDS011;3398;51.292;6.740;2023-05-29T00:11:55;3.55;;;2.00;;
6721;SDS011;3398;51.292;6.740;2023-05-29T00:12:24;5.88;;;2.53;;
6721;SDS011;3398;51.292;6.740;2023-05-29T00:12:52;4.18;;;2.33;;
6721;SDS011;3398;51.292;6.740;2023-05-29T00:13:23;3.22;;;2.30;;
6721;SDS011;3398;51.292;6.740;2023-05-29T00:13:52;5.88;;;2.55;;
6721;SDS011;3398;51.292;6.740;2023-05-29T00:14:20;4.40;;;2.13;;
6721;SDS011;3398;51.292;6.740;2023-05-29T00:14:49;3.53;;;2.17;;
6721;SDS011;3398;51.292;6.740;2023-05-29T00:15:17;2.92;;;2.17;;
6721;SDS011;3398;51.292;6.740;2023-05-29T00:15:47;5.20;;;2.20;;
6721;SDS011;3398;51.292;6.740;2023-05-29T00:16:15;4.13;;;2.30;;
6721;SDS011;3398;51.292;6.740;2023-05-29T00:16:45;3.72;;;2.42;;
6721;SDS011;3398;51.292;6.740;2023-05-29T00:17:13;6.60;;;2.28;;
6721;SDS011;3398;51.292;6.740;2023-05-29T00:17:43;3.15;;;2.50;;
6721;SDS011;3398;51.292;6.740;2023-05-29T00:18:11;4.47;;;2.35;;
6721;SDS011;3398;51.292;6.740;2023-05-29T00:18:39;4.95;;;2.78;;
6721;SDS011;3398;51.292;6.740;2023-05-29T00:19:12;3.80;;;2.55;;
6721;SDS011;3398;51.292;6.740;2023-05-29T00:19:43;3.92;;;2.53;;
6721;SDS011;3398;51.292;6.740;2023-05-29T00:20:13;3.70;;;2.00;;
6721;SDS011;3398;51.292;6.740;2023-05-29T00:20:41;3.67;;;2.10;;
6721;SDS011;3398;51.292;6.740;2023-05-29T00:21:11;3.85;;;2.03;;
6721;SDS011;3398;51.292;6.740;2023-05-29T00:21:39;5.28;;;2.83;;
6721;SDS011;3398;51.292;6.740;2023-05-29T00:22:08;5.10;;;2.50;;
6721;SDS011;3398;51.292;6.740;2023-05-29T00:22:37;4.82;;;2.45;;
6721;SDS011;3398;51.292;6.740;2023-05-29T00:23:05;3.35;;;1.98;;
6721;SDS011;3398;51.292;6.740;2023-05-29T00:23:33;3.40;;;2.30;;
6721;SDS011;3398;51.292;6.740;2023-05-29T00:24:01;4.80;;;2.40;;
6721;SDS011;3398;51.292;6.740;2023-05-29T00:24:31;4.25;;;2.50;;
6721;SDS011;3398;51.292;6.740;2023-05-29T00:24:59;3.05;;;2.40;;
6721;SDS011;3398;51.292;6.740;2023-05-29T00:25:27;4.60;;;2.58;;
6721;SDS011;3398;51.292;6.740;2023-05-29T00:25:56;5.18;;;2.67;;
6721;SDS011;3398;51.292;6.740;2023-05-29T00:26:24;4.57;;;2.55;;
6721;SDS011;3398;51.292;6.740;2023-05-29T00:26:53;5.53;;;2.40;;
6721;SDS011;3398;51.292;6.740;2023-05-29T00:27:22;4.43;;;2.10;;
6721;SDS011;3398;51.292;6.740;2023-05-29T00:27:50;4.07;;;2.40;;
6721;SDS011;3398;51.292;6.740;2023-05-29T00:28:18;6.05;;;2.47;;
6721;SDS011;3398;51.292;6.740;2023-05-29T00:28:47;4.03;;;2.53;;
6721;SDS011;3398;51.292;6.740;2023-05-29T00:29:16;11.95;;;2.50;;
6721;SDS011;3398;51.292;6.740;2023-05-29T00:29:44;4.57;;;2.33;;
6721;SDS011;3398;51.292;6.740;2023-05-29T00:30:13;4.57;;;2.42;;
6721;SDS011;3398;51.292;6.740;2023-05-29T00:30:41;3.50;;;2.65;;
6721;SDS011;3398;51.292;6.740;2023-05-29T00:31:10;3.55;;;2.15;;
6721;SDS011;3398;51.292;6.740;2023-05-29T00:31:39;4.53;;;2.50;;
6721;SDS011;3398;51.292;6.740;2023-05-29T00:32:07;5.05;;;2.58;;
6721;SDS011;3398;51.292;6.740;2023-05-29T00:32:35;3.63;;;2.53;;
6721;SDS011;3398;51.292;6.740;2023-05-29T00:33:04;6.35;;;2.50;;
6721;SDS011;3398;51.292;6.740;2023-05-29T00:33:32;4.00;;;2.50;;
6721;SDS011;3398;51.292;6.740;2023-05-29T00:34:01;4.60;;;2.40;;
6721;SDS011;3398;51.292;6.740;2023-05-29T00:34:29;4.85;;;2.60;;
6721;SDS011;3398;51.292;6.740;2023-05-29T00:34:58;2.92;;;2.15;;
6721;SDS011;3398;51.292;6.740;2023-05-29T00:35:27;5.35;;;2.40;;
6721;SDS011;3398;51.292;6.740;2023-05-29T00:35:55;5.20;;;2.72;;
6721;SDS011;3398;51.292;6.740;2023-05-29T00:36:25;3.53;;;2.15;;
6721;SDS011;3398;51.292;6.740;2023-05-29T00:36:53;3.92;;;2.33;;
6721;SDS011;3398;51.292;6.740;2023-05-29T00:37:22;4.50;;;2.72;;
6721;SDS011;3398;51.292;6.740;2023-05-29T00:37:51;4.70;;;2.42;;
6721;SDS011;3398;51.292;6.740;2023-05-29T00:38:20;6.07;;;2.22;;
6721;SDS011;3398;51.292;6.740;2023-05-29T00:38:48;4.82;;;2.30;;
6721;SDS011;3398;51.292;6.740;2023-05-29T00:39:16;8.48;;;2.40;;
6721;SDS011;3398;51.292;6.740;2023-05-29T00:39:45;5.20;;;2.38;;
6721;SDS011;3398;51.292;6.740;2023-05-29T00:40:14;6.03;;;2.40;;
6721;SDS011;3398;51.292;6.740;2023-05-29T00:40:42;4.90;;;2.10;;
6721;SDS011;3398;51.292;6.740;2023-05-29T00:41:14;5.32;;;2.60;;
6721;SDS011;3398;51.292;6.740;2023-05-29T00:41:44;3.17;;;2.47;;
6721;SDS011;3398;51.292;6.740;2023-05-29T00:42:12;3.25;;;2.22;;
6721;SDS011;3398;51.292;6.740;2023-05-29T00:42:40;6.53;;;2.20;;
6721;SDS011;3398;51.292;6.740;2023-05-29T00:43:09;4.38;;;2.72;;
6721;SDS011;3398;51.292;6.740;2023-05-29T00:43:37;4.30;;;2.55;;
6721;SDS011;3398;51.292;6.740;2023-05-29T00:44:05;4.82;;;2.60;;
6721;SDS011;3398;51.292;6.740;2023-05-29T00:44:34;3.42;;;2.10;;
6721;SDS011;3398;51.292;6.740;2023-05-29T00:45:03;3.63;;;2.63;;
6721;SDS011;3398;51.292;6.740;2023-05-29T00:45:31;3.05;;;2.45;;
6721;SDS011;3398;51.292;6.740;2023-05-29T00:46:03;3.80;;;2.40;;
6721;SDS011;3398;51.292;6.740;2023-05-29T00:46:32;5.60;;;2.65;;
6721;SDS011;3398;51.292;6.740;2023-05-29T00:47:01;3.33;;;2.50;;
6721;SDS011;3398;51.292;6.740;2023-05-29T00:47:29;2.70;;;2.05;;
6721;SDS011;3398;51.292;6.740;2023-05-29T00:47:58;4.35;;;2.30;;
6721;SDS011;3398;51.292;6.740;2023-05-29T00:48:26;5.32;;;2.67;;
6721;SDS011;3398;51.292;6.740;2023-05-29T00:48:55;5.78;;;2.80;;
6721;SDS011;3398;51.292;6.740;2023-05-29T00:49:25;4.25;;;2.40;;
6721;SDS011;3398;51.292;6.740;2023-05-29T00:49:53;4.88;;;2.58;;
6721;SDS011;3398;51.292;6.740;2023-05-29T00:50:22;5.35;;;2.75;;
6721;SDS011;3398;51.292;6.740;2023-05-29T00:50:53;2.88;;;2.10;;
6721;SDS011;3398;51.292;6.740;2023-05-29T00:51:21;3.65;;;2.33;;
6721;SDS011;3398;51.292;6.740;2023-05-29T00:51:49;4.18;;;2.35;;
6721;SDS011;3398;51.292;6.740;2023-05-29T00:52:19;4.07;;;2.10;;
6721;SDS011;3398;51.292;6.740;2023-05-29T00:52:48;3.97;;;2.42;;
6721;SDS011;3398;51.292;6.740;2023-05-29T00:53:16;3.03;;;2.20;;
6721;SDS011;3398;51.292;6.740;2023-05-29T00:53:45;2.97;;;1.98;;
6721;SDS011;3398;51.292;6.740;2023-05-29T00:54:14;4.13;;;2.40;;
6721;SDS011;3398;51.292;6.740;2023-05-29T00:54:46;5.47;;;2.67;;
6721;SDS011;3398;51.292;6.740;2023-05-29T00:55:14;4.90;;;2.20;;
6721;SDS011;3398;51.292;6.740;2023-05-29T00:55:43;3.35;;;1.95;;
6721;SDS011;3398;51.292;6.740;2023-05-29T00:56:12;3.38;;;2.10;;
6721;SDS011;3398;51.292;6.740;2023-05-29T00:56:40;5.50;;;2.28;;
6721;SDS011;3398;51.292;6.740;2023-05-29T00:57:10;4.22;;;2.35;;
6721;SDS011;3398;51.292;6.740;2023-05-29T00:57:40;5.85;;;2.50;;
6721;SDS011;3398;51.292;6.740;2023-05-29T00:58:09;4.53;;;2.50;;
6721;SDS011;3398;51.292;6.740;2023-05-29T00:58:37;3.17;;;2.22;;
6721;SDS011;3398;51.292;6.740;2023-05-29T00:59:06;5.68;;;2.40;;
6721;SDS011;3398;51.292;6.740;2023-05-29T00:59:35;5.25;;;2.38;;
6721;SDS011;3398;51.292;6.740;2023-05-29T01:00:04;5.25;;;2.17;;
6721;SDS011;3398;51.292;6.740;2023-05-29T01:00:32;4.90;;;2.03;;
6721;SDS011;3398;51.292;6.740;2023-05-29T01:01:02;3.92;;;2.42;;
6721;SDS011;3398;51.292;6.740;2023-05-29T01:01:31;5.15;;;2.75;;
6721;SDS011;3398;51.292;6.740;2023-05-29T01:02:00;6.13;;;2.45;;
6721;SDS011;3398;51.292;6.740;2023-05-29T01:02:29;5.35;;;2.67;;
6721;SDS011;3398;51.292;6.740;2023-05-29T01:02:58;3.17;;;2.47;;
6721;SDS011;3398;51.292;6.740;2023-05-29T01:03:30;3.67;;;2.60;;
6721;SDS011;3398;51.292;6.740;2023-05-29T01:03:59;4.78;;;2.53;;
6721;SDS011;3398;51.292;6.740;2023-05-29T01:04:27;4.63;;;2.20;;
6721;SDS011;3398;51.292;6.740;2023-05-29T01:05:00;5.50;;;2.50;;
6721;SDS011;3398;51.292;6.740;2023-05-29T01:05:28;5.40;;;2.45;;
6721;SDS011;3398;51.292;6.740;2023-05-29T01:05:59;4.05;;;2.40;;
6721;SDS011;3398;51.292;6.740;2023-05-29T01:06:28;3.95;;;2.53;;
6721;SDS011;3398;51.292;6.740;2023-05-29T01:06:56;4.07;;;2.50;;
6721;SDS011;3398;51.292;6.740;2023-05-29T01:07:24;5.82;;;2.42;;
6721;SDS011;3398;51.292;6.740;2023-05-29T01:07:52;2.60;;;2.40;;
6721;SDS011;3398;51.292;6.740;2023-05-29T01:08:22;5.20;;;2.65;;
6721;SDS011;3398;51.292;6.740;2023-05-29T01:08:50;4.45;;;2.38;;
6721;SDS011;3398;51.292;6.740;2023-05-29T01:09:18;5.15;;;2.72;;
6721;SDS011;3398;51.292;6.740;2023-05-29T01:09:47;6.07;;;2.42;;
6721;SDS011;3398;51.292;6.740;2023-05-29T01:10:16;2.95;;;2.05;;
6721;SDS011;3398;51.292;6.740;2023-05-29T01:10:44;5.35;;;2.50;;
6721;SDS011;3398;51.292;6.740;2023-05-29T01:11:16;5.50;;;2.42;;
6721;SDS011;3398;51.292;6.740;2023-05-29T01:11:51;5.13;;;2.75;;
6721;SDS011;3398;51.292;6.740;2023-05-29T01:12:26;5.88;;;2.47;;
6721;SDS011;3398;51.292;6.740;2023-05-29T01:12:59;4.90;;;2.55;;
6721;SDS011;3398;51.292;6.740;2023-05-29T01:13:29;7.28;;;2.75;;
6721;SDS011;3398;51.292;6.740;2023-05-29T01:14:00;3.30;;;2.30;;
6721;SDS011;3398;51.292;6.740;2023-05-29T01:14:36;4.55;;;2.45;;
6721;SDS011;3398;51.292;6.740;2023-05-29T01:15:17;4.13;;;2.40;;
6721;SDS011;3398;51.292;6.740;2023-05-29T01:15:49;4.28;;;2.40;;
6721;SDS011;3398;51.292;6.740;2023-05-29T01:16:21;5.05;;;2.30;;
6721;SDS011;3398;51.292;6.740;2023-05-29T01:16:55;3.33;;;2.65;;
6721;SDS011;3398;51.292;6.740;2023-05-29T01:17:32;4.80;;;2.38;;
6721;SDS011;3398;51.292;6.740;2023-05-29T01:18:08;4.20;;;2.28;;
6721;SDS011;3398;51.292;6.740;2023-05-29T01:18:41;5.78;;;2.40;;
6721;SDS011;3398;51.292;6.740;2023-05-29T01:19:16;5.32;;;2.47;;
6721;SDS011;3398;51.292;6.740;2023-05-29T01:20:01;6.78;;;2.88;;
6721;SDS011;3398;51.292;6.740;2023-05-29T01:20:33;5.45;;;2.80;;
6721;SDS011;3398;51.292;6.740;2023-05-29T01:21:08;4.75;;;2.50;;
6721;SDS011;3398;51.292;6.740;2023-05-29T01:21:47;4.63;;;2.65;;
6721;SDS011;3398;51.292;6.740;2023-05-29T01:22:24;5.97;;;2.78;;
6721;SDS011;3398;51.292;6.740;2023-05-29T01:23:00;3.38;;;2.22;;
6721;SDS011;3398;51.292;6.740;2023-05-29T01:24:36;5.10;;;2.75;;
6721;SDS011;3398;51.292;6.740;2023-05-29T01:25:08;3.17;;;2.47;;
6721;SDS011;3398;51.292;6.740;2023-05-29T01:26:42;4.88;;;2.95;;
6721;SDS011;3398;51.292;6.740;2023-05-29T01:27:13;3.35;;;2.50;;
6721;SDS011;3398;51.292;6.740;2023-05-29T01:27:44;4.35;;;2.45;;
6721;SDS011;3398;51.292;6.740;2023-05-29T01:28:14;7.80;;;2.90;;
6721;SDS011;3398;51.292;6.740;2023-05-29T01:28:44;9.35;;;2.83;;
6721;SDS011;3398;51.292;6.740;2023-05-29T01:29:16;4.80;;;2.70;;
6721;SDS011;3398;51.292;6.740;2023-05-29T01:29:47;5.70;;;2.63;;
6721;SDS011;3398;51.292;6.740;2023-05-29T01:30:15;5.93;;;2.53;;
6721;SDS011;3398;51.292;6.740;2023-05-29T01:30:43;5.55;;;2.80;;
6721;SDS011;3398;51.292;6.740;2023-05-29T01:31:11;6.32;;;2.90;;
6721;SDS011;3398;51.292;6.740;2023-05-29T01:31:42;4.70;;;2.90;;
6721;SDS011;3398;51.292;6.740;2023-05-29T01:32:11;7.53;;;2.85;;
6721;SDS011;3398;51.292;6.740;2023-05-29T01:32:39;5.50;;;2.65;;
6721;SDS011;3398;51.292;6.740;2023-05-29T01:33:10;5.03;;;2.80;;
6721;SDS011;3398;51.292;6.740;2023-05-29T01:33:38;4.95;;;2.70;;
6721;SDS011;3398;51.292;6.740;2023-05-29T01:34:07;6.28;;;2.95;;
6721;SDS011;3398;51.292;6.740;2023-05-29T01:34:35;6.38;;;2.53;;
6721;SDS011;3398;51.292;6.740;2023-05-29T01:35:05;6.55;;;2.90;;
6721;SDS011;3398;51.292;6.740;2023-05-29T01:35:33;5.00;;;3.05;;
6721;SDS011;3398;51.292;6.740;2023-05-29T01:36:01;5.93;;;2.90;;
6721;SDS011;3398;51.292;6.740;2023-05-29T01:36:29;8.07;;;3.10;;
6721;SDS011;3398;51.292;6.740;2023-05-29T01:36:59;6.68;;;2.78;;
6721;SDS011;3398;51.292;6.740;2023-05-29T01:37:27;5.70;;;2.83;;
6721;SDS011;3398;51.292;6.740;2023-05-29T01:37:56;4.72;;;2.75;;
6721;SDS011;3398;51.292;6.740;2023-05-29T01:38:24;3.65;;;2.50;;
6721;SDS011;3398;51.292;6.740;2023-05-29T01:38:54;4.75;;;2.63;;
6721;SDS011;3398;51.292;6.740;2023-05-29T01:39:23;4.07;;;2.55;;
6721;SDS011;3398;51.292;6.740;2023-05-29T01:39:51;4.85;;;2.70;;
6721;SDS011;3398;51.292;6.740;2023-05-29T01:40:20;4.05;;;2.60;;
6721;SDS011;3398;51.292;6.740;2023-05-29T01:40:49;5.20;;;2.90;;
6721;SDS011;3398;51.292;6.740;2023-05-29T01:41:17;7.28;;;3.42;;
6721;SDS011;3398;51.292;6.740;2023-05-29T01:41:47;5.82;;;3.17;;
6721;SDS011;3398;51.292;6.740;2023-05-29T01:42:17;5.53;;;2.80;;
6721;SDS011;3398;51.292;6.740;2023-05-29T01:42:45;6.97;;;2.90;;
6721;SDS011;3398;51.292;6.740;2023-05-29T01:43:13;6.10;;;2.75;;
6721;SDS011;3398;51.292;6.740;2023-05-29T01:43:42;7.50;;;2.75;;
6721;SDS011;3398;51.292;6.740;2023-05-29T01:44:11;6.13;;;2.70;;
6721;SDS011;3398;51.292;6.740;2023-05-29T01:44:40;6.63;;;2.80;;
6721;SDS011;3398;51.292;6.740;2023-05-29T01:45:09;5.13;;;2.47;;
6721;SDS011;3398;51.292;6.740;2023-05-29T01:45:39;5.78;;;2.70;;
6721;SDS011;3398;51.292;6.740;2023-05-29T01:46:07;4.38;;;2.53;;
6721;SDS011;3398;51.292;6.740;2023-05-29T01:46:35;5.65;;;2.90;;
6721;SDS011;3398;51.292;6.740;2023-05-29T01:47:04;5.88;;;3.00;;
6721;SDS011;3398;51.292;6.740;2023-05-29T01:47:34;7.07;;;3.08;;
6721;SDS011;3398;51.292;6.740;2023-05-29T01:48:03;8.73;;;2.85;;
6721;SDS011;3398;51.292;6.740;2023-05-29T01:48:32;8.55;;;3.40;;
6721;SDS011;3398;51.292;6.740;2023-05-29T01:49:01;6.88;;;3.20;;
6721;SDS011;3398;51.292;6.740;2023-05-29T01:49:29;8.10;;;2.80;;
6721;SDS011;3398;51.292;6.740;2023-05-29T01:49:59;6.95;;;2.70;;
6721;SDS011;3398;51.292;6.740;2023-05-29T01:50:30;5.80;;;2.92;;
6721;SDS011;3398;51.292;6.740;2023-05-29T01:50:58;6.97;;;3.05;;
6721;SDS011;3398;51.292;6.740;2023-05-29T01:51:27;6.25;;;2.72;;
6721;SDS011;3398;51.292;6.740;2023-05-29T01:51:56;6.28;;;2.80;;
6721;SDS011;3398;51.292;6.740;2023-05-29T01:52:24;5.85;;;3.00;;
6721;SDS011;3398;51.292;6.740;2023-05-29T01:52:52;8.05;;;3.15;;
6721;SDS011;3398;51.292;6.740;2023-05-29T01:53:20;8.40;;;3.08;;
6721;SDS011;3398;51.292;6.740;2023-05-29T01:53:50;8.38;;;2.53;;
6721;SDS011;3398;51.292;6.740;2023-05-29T01:54:18;11.15;;;3.30;;
6721;SDS011;3398;51.292;6.740;2023-05-29T01:54:47;8.90;;;3.00;;
6721;SDS011;3398;51.292;6.740;2023-05-29T01:55:16;8.75;;;3.45;;
6721;SDS011;3398;51.292;6.740;2023-05-29T01:55:44;7.75;;;3.22;;
6721;SDS011;3398;51.292;6.740;2023-05-29T01:56:12;8.07;;;2.80;;
6721;SDS011;3398;51.292;6.740;2023-05-29T01:56:42;6.20;;;2.97;;
6721;SDS011;3398;51.292;6.740;2023-05-29T01:57:11;7.03;;;2.80;;
6721;SDS011;3398;51.292;6.740;2023-05-29T01:57:40;6.53;;;2.63;;
6721;SDS011;3398;51.292;6.740;2023-05-29T01:58:09;8.60;;;3.17;;
6721;SDS011;3398;51.292;6.740;2023-05-29T01:58:38;8.13;;;2.88;;
6721;SDS011;3398;51.292;6.740;2023-05-29T01:59:06;9.30;;;2.80;;
6721;SDS011;3398;51.292;6.740;2023-05-29T01:59:37;6.40;;;2.85;;
6721;SDS011;3398;51.292;6.740;2023-05-29T02:00:06;5.07;;;2.90;;
6721;SDS011;3398;51.292;6.740;2023-05-29T02:00:36;9.23;;;3.13;;
6721;SDS011;3398;51.292;6.740;2023-05-29T02:01:05;5.93;;;2.90;;
6721;SDS011;3398;51.292;6.740;2023-05-29T02:01:34;10.48;;;3.28;;
6721;SDS011;3398;51.292;6.740;2023-05-29T02:02:07;6.90;;;2.90;;
6721;SDS011;3398;51.292;6.740;2023-05-29T02:02:36;7.88;;;2.83;;
6721;SDS011;3398;51.292;6.740;2023-05-29T02:03:05;8.48;;;3.40;;
6721;SDS011;3398;51.292;6.740;2023-05-29T02:03:34;5.18;;;2.42;;
6721;SDS011;3398;51.292;6.740;2023-05-29T02:04:02;6.97;;;2.70;;
6721;SDS011;3398;51.292;6.740;2023-05-29T02:04:31;5.95;;;2.72;;
6721;SDS011;3398;51.292;6.740;2023-05-29T02:04:59;7.90;;;3.38;;
6721;SDS011;3398;51.292;6.740;2023-05-29T02:05:28;6.03;;;3.00;;
6721;SDS011;3398;51.292;6.740;2023-05-29T02:05:56;6.25;;;3.00;;
6721;SDS011;3398;51.292;6.740;2023-05-29T02:06:25;6.53;;;3.15;;
6721;SDS011;3398;51.292;6.740;2023-05-29T02:06:54;8.43;;;3.17;;
6721;SDS011;3398;51.292;6.740;2023-05-29T02:07:22;7.32;;;3.17;;
6721;SDS011;3398;51.292;6.740;2023-05-29T02:07:51;9.85;;;3.05;;
6721;SDS011;3398;51.292;6.740;2023-05-29T02:08:19;7.55;;;2.90;;
6721;SDS011;3398;51.292;6.740;2023-05-29T02:08:47;6.32;;;3.03;;
6721;SDS011;3398;51.292;6.740;2023-05-29T02:09:17;8.60;;;2.92;;
6721;SDS011;3398;51.292;6.740;2023-05-29T02:09:45;6.68;;;2.75;;
6721;SDS011;3398;51.292;6.740;2023-05-29T02:10:13;7.13;;;3.10;;
6721;SDS011;3398;51.292;6.740;2023-05-29T02:10:42;6.63;;;3.00;;
6721;SDS011;3398;51.292;6.740;2023-05-29T02:11:11;6.68;;;2.42;;
6721;SDS011;3398;51.292;6.740;2023-05-29T02:11:39;7.20;;;2.67;;
6721;SDS011;3398;51.292;6.740;2023-05-29T02:12:14;8.95;;;2.67;;
6721;SDS011;3398;51.292;6.740;2023-05-29T02:12:43;9.48;;;3.00;;
6721;SDS011;3398;51.292;6.740;2023-05-29T02:13:11;6.88;;;2.70;;
6721;SDS011;3398;51.292;6.740;2023-05-29T02:13:39;7.55;;;2.92;;
6721;SDS011;3398;51.292;6.740;2023-05-29T02:14:07;9.98;;;3.47;;
6721;SDS011;3398;51.292;6.740;2023-05-29T02:14:37;6.45;;;2.60;;
6721;SDS011;3398;51.292;6.740;2023-05-29T02:15:07;8.88;;;3.17;;
6721;SDS011;3398;51.292;6.740;2023-05-29T02:15:36;8.48;;;2.92;;
6721;SDS011;3398;51.292;6.740;2023-05-29T02:16:05;6.40;;;3.03;;
6721;SDS011;3398;51.292;6.740;2023-05-29T02:16:33;7.85;;;3.10;;
6721;SDS011;3398;51.292;6.740;2023-05-29T02:17:02;7.55;;;3.10;;
6721;SDS011;3398;51.292;6.740;2023-05-29T02:17:31;7.85;;;3.10;;
6721;SDS011;3398;51.292;6.740;2023-05-29T02:18:00;5.88;;;3.17;;
6721;SDS011;3398;51.292;6.740;2023-05-29T02:18:29;5.97;;;2.95;;
6721;SDS011;3398;51.292;6.740;2023-05-29T02:18:58;6.90;;;2.92;;
6721;SDS011;3398;51.292;6.740;2023-05-29T02:19:28;12.70;;;3.35;;
6721;SDS011;3398;51.292;6.740;2023-05-29T02:19:56;9.63;;;3.03;;
6721;SDS011;3398;51.292;6.740;2023-05-29T02:20:24;9.63;;;2.70;;
6721;SDS011;3398;51.292;6.740;2023-05-29T02:20:54;7.05;;;2.78;;
6721;SDS011;3398;51.292;6.740;2023-05-29T02:21:22;7.13;;;3.20;;
6721;SDS011;3398;51.292;6.740;2023-05-29T02:21:50;4.88;;;2.70;;
6721;SDS011;3398;51.292;6.740;2023-05-29T02:22:18;6.10;;;3.05;;
6721;SDS011;3398;51.292;6.740;2023-05-29T02:22:48;5.75;;;2.63;;
6721;SDS011;3398;51.292;6.740;2023-05-29T02:23:16;10.73;;;3.40;;
6721;SDS011;3398;51.292;6.740;2023-05-29T02:23:44;10.85;;;2.80;;
6721;SDS011;3398;51.292;6.740;2023-05-29T02:24:13;8.20;;;3.08;;
6721;SDS011;3398;51.292;6.740;2023-05-29T02:24:42;6.45;;;3.15;;
6721;SDS011;3398;51.292;6.740;2023-05-29T02:25:10;8.30;;;2.72;;
6721;SDS011;3398;51.292;6.740;2023-05-29T02:25:38;9.10;;;3.28;;
6721;SDS011;3398;51.292;6.740;2023-05-29T02:26:07;8.52;;;2.90;;
6721;SDS011;3398;51.292;6.740;2023-05-29T02:26:36;9.38;;;3.00;;
6721;SDS011;3398;51.292;6.740;2023-05-29T02:27:04;6.10;;;2.80;;
6721;SDS011;3398;51.292;6.740;2023-05-29T02:27:34;12.98;;;3.60;;
6721;SDS011;3398;51.292;6.740;2023-05-29T02:28:03;9.38;;;3.03;;
6721;SDS011;3398;51.292;6.740;2023-05-29T02:28:31;8.30;;;2.97;;
6721;SDS011;3398;51.292;6.740;2023-05-29T02:28:59;7.63;;;3.50;;
6721;SDS011;3398;51.292;6.740;2023-05-29T02:29:28;5.90;;;3.03;;
6721;SDS011;3398;51.292;6.740;2023-05-29T02:29:57;8.02;;;2.80;;
6721;SDS011;3398;51.292;6.740;2023-05-29T02:30:25;8.80;;;3.17;;
6721;SDS011;3398;51.292;6.740;2023-05-29T02:30:53;9.35;;;3.15;;
6721;SDS011;3398;51.292;6.740;2023-05-29T02:31:23;6.40;;;2.83;;
6721;SDS011;3398;51.292;6.740;2023-05-29T02:31:51;10.82;;;2.90;;
6721;SDS011;3398;51.292;6.740;2023-05-29T02:32:19;7.07;;;2.75;;
6721;SDS011;3398;51.292;6.740;2023-05-29T02:32:47;6.65;;;2.83;;
6721;SDS011;3398;51.292;6.740;2023-05-29T02:33:16;7.93;;;3.28;;
6721;SDS011;3398;51.292;6.740;2023-05-29T02:33:45;6.05;;;2.70;;
6721;SDS011;3398;51.292;6.740;2023-05-29T02:34:13;8.60;;;2.80;;
6721;SDS011;3398;51.292;6.740;2023-05-29T02:34:42;8.10;;;2.63;;
6721;SDS011;3398;51.292;6.740;2023-05-29T02:35:10;6.53;;;2.95;;
6721;SDS011;3398;51.292;6.740;2023-05-29T02:35:40;8.75;;;2.90;;
6721;SDS011;3398;51.292;6.740;2023-05-29T02:36:08;7.28;;;3.00;;
6721;SDS011;3398;51.292;6.740;2023-05-29T02:36:38;8.48;;;2.60;;
6721;SDS011;3398;51.292;6.740;2023-05-29T02:37:07;10.07;;;3.05;;
6721;SDS011;3398;51.292;6.740;2023-05-29T02:37:35;7.70;;;2.95;;
6721;SDS011;3398;51.292;6.740;2023-05-29T02:38:03;8.52;;;3.40;;
6721;SDS011;3398;51.292;6.740;2023-05-29T02:38:32;7.18;;;2.97;;
6721;SDS011;3398;51.292;6.740;2023-05-29T02:39:00;8.93;;;3.28;;
6721;SDS011;3398;51.292;6.740;2023-05-29T02:39:29;8.23;;;3.00;;
6721;SDS011;3398;51.292;6.740;2023-05-29T02:39:58;9.45;;;3.00;;
6721;SDS011;3398;51.292;6.740;2023-05-29T02:40:26;7.68;;;3.03;;
6721;SDS011;3398;51.292;6.740;2023-05-29T02:40:54;4.88;;;2.58;;
6721;SDS011;3398;51.292;6.740;2023-05-29T02:41:23;6.68;;;2.78;;
6721;SDS011;3398;51.292;6.740;2023-05-29T02:41:51;8.18;;;3.00;;
6721;SDS011;3398;51.292;6.740;2023-05-29T02:42:21;8.98;;;2.95;;
6721;SDS011;3398;51.292;6.740;2023-05-29T02:42:51;4.55;;;2.72;;
6721;SDS011;3398;51.292;6.740;2023-05-29T02:43:21;7.18;;;3.08;;
6721;SDS011;3398;51.292;6.740;2023-05-29T02:43:49;10.13;;;2.72;;
6721;SDS011;3398;51.292;6.740;2023-05-29T02:44:18;9.52;;;3.33;;
6721;SDS011;3398;51.292;6.740;2023-05-29T02:44:46;7.32;;;3.10;;
6721;SDS011;3398;51.292;6.740;2023-05-29T02:45:15;8.63;;;3.17;;
6721;SDS011;3398;51.292;6.740;2023-05-29T02:45:43;11.50;;;3.10;;
6721;SDS011;3398;51.292;6.740;2023-05-29T02:46:12;8.50;;;3.00;;
6721;SDS011;3398;51.292;6.740;2023-05-29T02:46:40;9.75;;;3.10;;
6721;SDS011;3398;51.292;6.740;2023-05-29T02:47:08;7.80;;;3.10;;
6721;SDS011;3398;51.292;6.740;2023-05-29T02:47:37;8.25;;;3.17;;
6721;SDS011;3398;51.292;6.740;2023-05-29T02:48:06;7.03;;;2.65;;
6721;SDS011;3398;51.292;6.740;2023-05-29T02:48:34;10.40;;;3.08;;
6721;SDS011;3398;51.292;6.740;2023-05-29T02:49:03;8.52;;;2.90;;
6721;SDS011;3398;51.292;6.740;2023-05-29T02:49:32;9.25;;;3.03;;
6721;SDS011;3398;51.292;6.740;2023-05-29T02:50:00;9.30;;;2.78;;
6721;SDS011;3398;51.292;6.740;2023-05-29T02:50:28;8.77;;;2.80;;
6721;SDS011;3398;51.292;6.740;2023-05-29T02:50:57;7.53;;;3.13;;
6721;SDS011;3398;51.292;6.740;2023-05-29T02:51:25;9.82;;;3.00;;
6721;SDS011;3398;51.292;6.740;2023-05-29T02:51:54;9.82;;;3.10;;
6721;SDS011;3398;51.292;6.740;2023-05-29T02:52:24;8.80;;;3.15;;
6721;SDS011;3398;51.292;6.740;2023-05-29T02:52:52;10.45;;;3.30;;
6721;SDS011;3398;51.292;6.740;2023-05-29T02:53:20;11.55;;;3.20;;
6721;SDS011;3398;51.292;6.740;2023-05-29T02:53:49;7.75;;;3.08;;
6721;SDS011;3398;51.292;6.740;2023-05-29T02:54:17;10.05;;;3.33;;
6721;SDS011;3398;51.292;6.740;2023-05-29T02:54:45;8.88;;;3.05;;
6721;SDS011;3398;51.292;6.740;2023-05-29T02:55:14;10.23;;;3.05;;
6721;SDS011;3398;51.292;6.740;2023-05-29T02:55:43;10.52;;;3.65;;
6721;SDS011;3398;51.292;6.740;2023-05-29T02:56:12;9.55;;;3.03;;
6721;SDS011;3398;51.292;6.740;2023-05-29T02:56:40;10.20;;;3.30;;
6721;SDS011;3398;51.292;6.740;2023-05-29T02:57:08;10.35;;;3.47;;
6721;SDS011;3398;51.292;6.740;2023-05-29T02:57:37;9.85;;;2.65;;
6721;SDS011;3398;51.292;6.740;2023-05-29T02:58:07;9.85;;;2.85;;
6721;SDS011;3398;51.292;6.740;2023-05-29T02:58:35;9.30;;;3.05;;
6721;SDS011;3398;51.292;6.740;2023-05-29T02:59:04;10.30;;;3.60;;
6721;SDS011;3398;51.292;6.740;2023-05-29T02:59:33;9.63;;;3.15;;
6721;SDS011;3398;51.292;6.740;2023-05-29T03:00:01;10.02;;;3.33;;
6721;SDS011;3398;51.292;6.740;2023-05-29T03:00:33;9.88;;;3.30;;
6721;SDS011;3398;51.292;6.740;2023-05-29T03:01:01;11.38;;;3.30;;
6721;SDS011;3398;51.292;6.740;2023-05-29T03:01:30;10.40;;;3.30;;
6721;SDS011;3398;51.292;6.740;2023-05-29T03:02:01;9.18;;;3.40;;
6721;SDS011;3398;51.292;6.740;2023-05-29T03:02:29;9.13;;;2.88;;
6721;SDS011;3398;51.292;6.740;2023-05-29T03:02:57;10.98;;;3.70;;
6721;SDS011;3398;51.292;6.740;2023-05-29T03:03:26;12.00;;;3.35;;
6721;SDS011;3398;51.292;6.740;2023-05-29T03:03:55;9.88;;;3.38;;